createdAt,value
2018-05-14T00:01:29.620Z,94.90
2018-05-14T00:03:57.917Z,95.10
2018-05-14T00:06:26.201Z,95.30
2018-05-14T00:08:54.467Z,95.50
2018-05-14T00:11:22.735Z,95.70
2018-05-14T00:13:50.988Z,96.00
2018-05-14T00:16:19.273Z,96.20
2018-05-14T00:18:47.544Z,96.50
2018-05-14T00:21:15.830Z,96.70
2018-05-14T00:23:44.136Z,97.00
2018-05-14T00:26:12.410Z,97.20
2018-05-14T00:28:40.708Z,97.40
2018-05-14T00:31:08.976Z,97.60
2018-05-14T00:33:38.748Z,98.10
2018-05-14T00:36:07.027Z,98.10
2018-05-14T00:38:35.324Z,98.30
2018-05-14T00:41:03.632Z,98.50
2018-05-14T00:43:32.659Z,98.90
2018-05-14T00:46:00.936Z,98.80
2018-05-14T00:48:29.221Z,99.10
2018-05-14T00:50:57.485Z,99.40
2018-05-14T00:53:25.760Z,99.60
2018-05-14T00:55:54.038Z,99.70
2018-05-14T00:58:22.315Z,99.90
2018-05-14T01:00:50.600Z,99.90
2018-05-14T01:03:18.867Z,99.90
2018-05-14T01:05:47.147Z,99.90
2018-05-14T01:08:15.461Z,99.90
2018-05-14T01:10:43.724Z,99.90
2018-05-14T01:13:12.012Z,99.90
2018-05-14T01:15:40.287Z,99.90
2018-05-14T01:18:08.583Z,99.90
2018-05-14T01:20:37.622Z,99.90
2018-05-14T01:23:05.935Z,99.90
2018-05-14T01:25:34.198Z,99.90
2018-05-14T01:28:02.562Z,99.90
2018-05-14T01:30:30.759Z,99.90
2018-05-14T01:32:59.047Z,99.90
2018-05-14T01:35:27.308Z,99.90
2018-05-14T01:37:55.611Z,99.90
2018-05-14T01:40:24.660Z,99.90
2018-05-14T01:42:52.926Z,99.90
2018-05-14T01:45:21.216Z,99.90
2018-05-14T01:47:49.499Z,99.90
2018-05-14T01:50:17.813Z,99.90
2018-05-14T01:52:46.067Z,99.90
2018-05-14T01:55:14.439Z,99.90
2018-05-14T01:57:42.732Z,99.90
2018-05-14T02:00:11.024Z,99.90
2018-05-14T02:02:39.267Z,99.90
2018-05-14T02:05:07.551Z,99.90
2018-05-14T02:07:35.823Z,99.90
2018-05-14T02:10:04.079Z,99.90
2018-05-14T02:12:38.315Z,99.90
2018-05-14T02:15:06.579Z,99.90
2018-05-14T02:17:34.884Z,99.90
2018-05-14T02:20:03.149Z,99.90
2018-05-14T02:22:31.421Z,99.90
2018-05-14T02:24:59.708Z,99.90
2018-05-14T02:27:27.971Z,99.90
2018-05-14T02:29:56.269Z,99.90
2018-05-14T02:32:24.538Z,99.90
2018-05-14T02:34:52.839Z,99.90
2018-05-14T02:37:21.879Z,99.90
2018-05-14T02:39:50.171Z,99.90
2018-05-14T02:42:18.428Z,99.90
2018-05-14T02:44:46.697Z,99.90
2018-05-14T02:49:50.324Z,99.90
2018-05-14T02:52:18.604Z,99.90
2018-05-14T02:54:46.884Z,99.90
2018-05-14T02:57:15.154Z,99.90
2018-05-14T02:59:43.427Z,99.90
2018-05-14T03:02:11.699Z,99.90
2018-05-14T03:04:40.017Z,99.90
2018-05-14T03:07:08.287Z,99.90
2018-05-14T03:09:36.656Z,99.90
2018-05-14T03:12:04.949Z,99.90
2018-05-14T03:14:33.306Z,99.90
2018-05-14T03:17:01.597Z,99.90
2018-05-14T03:19:29.874Z,99.90
2018-05-14T03:21:58.150Z,99.90
2018-05-14T03:24:26.420Z,99.90
2018-05-14T03:26:54.709Z,99.90
2018-05-14T03:29:23.748Z,99.90
2018-05-14T03:31:52.039Z,99.90
2018-05-14T03:34:20.298Z,99.90
2018-05-14T03:36:48.576Z,99.90
2018-05-14T03:39:16.855Z,99.90
2018-05-14T03:41:45.116Z,99.90
2018-05-14T03:44:13.387Z,99.90
2018-05-14T03:46:42.416Z,99.90
2018-05-14T03:49:10.691Z,99.90
2018-05-14T03:51:38.971Z,99.90
2018-05-14T03:54:07.363Z,99.90
2018-05-14T03:56:35.623Z,99.90
2018-05-14T03:59:16.008Z,99.90
2018-05-14T04:04:58.225Z,99.90
2018-05-14T04:07:26.496Z,99.90
2018-05-14T04:09:54.772Z,99.90
2018-05-14T04:12:23.057Z,99.90
2018-05-14T04:14:51.352Z,99.90
2018-05-14T04:17:20.388Z,99.90
2018-05-14T04:19:48.683Z,99.90
2018-05-14T04:22:16.962Z,99.90
2018-05-14T04:24:45.267Z,99.90
2018-05-14T04:27:13.519Z,99.90
2018-05-14T04:29:41.816Z,99.90
2018-05-14T04:32:10.100Z,99.90
2018-05-14T04:34:38.372Z,99.90
2018-05-14T04:37:06.679Z,99.90
2018-05-14T04:39:35.031Z,99.90
2018-05-14T04:42:04.819Z,99.90
2018-05-14T04:44:33.084Z,99.90
2018-05-14T04:47:01.390Z,99.90
2018-05-14T04:49:29.667Z,99.90
2018-05-14T04:51:57.928Z,99.90
2018-05-14T04:54:26.236Z,99.90
2018-05-14T04:56:55.261Z,99.90
2018-05-14T04:59:23.580Z,99.90
2018-05-14T05:01:51.858Z,99.90
2018-05-14T05:04:20.154Z,99.90
2018-05-14T05:06:48.503Z,99.90
2018-05-14T05:09:16.803Z,99.90
2018-05-14T05:11:45.072Z,99.90
2018-05-14T05:14:13.436Z,99.90
2018-05-14T05:16:41.752Z,99.90
2018-05-14T05:19:10.787Z,99.90
2018-05-14T05:21:39.051Z,99.90
2018-05-14T05:24:07.332Z,99.90
2018-05-14T05:26:35.631Z,99.90
2018-05-14T05:29:03.908Z,99.90
2018-05-14T05:31:32.172Z,99.90
2018-05-14T05:34:00.451Z,99.90
2018-05-14T05:36:28.718Z,99.90
2018-05-14T05:38:57.019Z,99.90
2018-05-14T05:41:25.302Z,99.90
2018-05-14T05:43:53.588Z,99.90
2018-05-14T05:46:22.644Z,99.90
2018-05-14T05:48:50.935Z,99.90
2018-05-14T05:51:19.232Z,99.90
2018-05-14T05:53:47.483Z,99.90
2018-05-14T05:56:15.742Z,99.90
2018-05-14T05:58:44.072Z,99.90
2018-05-14T06:01:13.148Z,99.90
2018-05-14T06:03:41.372Z,99.90
2018-05-14T06:06:09.668Z,99.90
2018-05-14T06:08:38.091Z,99.90
2018-05-14T06:11:06.344Z,99.90
2018-05-14T06:13:34.620Z,99.90
2018-05-14T06:16:02.929Z,99.90
2018-05-14T06:18:31.977Z,99.90
2018-05-14T06:21:00.259Z,99.90
2018-05-14T06:23:28.528Z,99.90
2018-05-14T06:25:56.803Z,99.90
2018-05-14T06:28:25.067Z,99.90
2018-05-14T06:30:53.339Z,99.90
2018-05-14T06:33:21.601Z,99.90
2018-05-14T06:35:50.034Z,99.90
2018-05-14T06:38:18.200Z,99.90
2018-05-14T06:40:46.535Z,99.90
2018-05-14T06:43:14.736Z,99.90
2018-05-14T06:45:43.128Z,99.90
2018-05-14T06:48:11.407Z,99.90
2018-05-14T06:50:39.676Z,99.90
2018-05-14T06:53:08.031Z,99.90
2018-05-14T06:55:37.015Z,99.90
2018-05-14T06:58:05.295Z,99.90
2018-05-14T07:00:33.576Z,99.90
2018-05-14T07:03:01.983Z,99.90
2018-05-14T07:05:30.183Z,99.90
2018-05-14T07:07:58.446Z,99.90
2018-05-14T07:10:27.508Z,99.90
2018-05-14T07:12:55.843Z,99.90
2018-05-14T07:15:24.071Z,99.90
2018-05-14T07:17:52.352Z,99.90
2018-05-14T07:20:21.464Z,99.90
2018-05-14T07:22:49.743Z,99.90
2018-05-14T07:25:18.043Z,99.90
2018-05-14T07:27:46.320Z,99.90
2018-05-14T07:30:15.462Z,99.90
2018-05-14T07:32:44.459Z,99.90
2018-05-14T07:35:12.745Z,99.90
2018-05-14T07:37:41.035Z,99.80
2018-05-14T07:40:09.399Z,99.90
2018-05-14T07:42:37.700Z,99.80
2018-05-14T07:45:05.984Z,99.90
2018-05-14T07:47:34.335Z,99.90
2018-05-14T07:50:02.611Z,99.30
2018-05-14T07:52:30.900Z,98.80
2018-05-14T07:54:59.187Z,99.20
2018-05-14T07:57:28.255Z,98.60
2018-05-14T07:59:56.640Z,98.60
2018-05-14T08:02:24.911Z,98.30
2018-05-14T08:04:53.188Z,98.60
2018-05-14T08:07:21.477Z,97.90
2018-05-14T08:09:49.755Z,97.80
2018-05-14T08:12:18.211Z,97.50
2018-05-14T08:14:46.599Z,97.50
2018-05-14T08:17:14.867Z,97.50
2018-05-14T08:19:43.251Z,97.20
2018-05-14T08:22:11.552Z,97.40
2018-05-14T08:24:40.613Z,96.30
2018-05-14T08:27:08.908Z,96.30
2018-05-14T08:29:37.215Z,96.40
2018-05-14T08:32:05.580Z,96.40
2018-05-14T08:34:34.636Z,96.90
2018-05-14T08:37:03.007Z,96.80
2018-05-14T08:39:31.237Z,96.30
2018-05-14T08:42:00.299Z,96.80
2018-05-14T08:44:28.579Z,96.80
2018-05-14T08:46:56.851Z,95.50
2018-05-14T08:49:25.128Z,95.70
2018-05-14T08:51:54.932Z,94.80
2018-05-14T08:54:23.350Z,94.70
2018-05-14T08:56:51.595Z,94.50
2018-05-14T08:59:19.863Z,94.00
2018-05-14T09:01:48.143Z,94.40
2018-05-14T09:04:16.420Z,94.50
2018-05-14T09:06:44.800Z,94.70
2018-05-14T09:09:13.051Z,93.90
2018-05-14T09:11:41.344Z,94.30
2018-05-14T09:14:09.624Z,94.70
2018-05-14T09:16:37.900Z,93.80
2018-05-14T09:19:06.180Z,93.70
2018-05-14T09:21:34.448Z,93.70
2018-05-14T09:24:02.707Z,93.30
2018-05-14T09:26:30.983Z,93.50
2018-05-14T09:28:59.282Z,92.60
2018-05-14T09:31:27.558Z,92.60
2018-05-14T09:33:55.840Z,92.20
2018-05-14T09:36:24.120Z,92.40
2018-05-14T09:38:52.415Z,92.80
2018-05-14T09:41:20.692Z,91.80
2018-05-14T09:43:48.983Z,91.30
2018-05-14T09:46:18.024Z,91.30
2018-05-14T09:48:46.416Z,91.30
2018-05-14T09:51:14.671Z,90.90
2018-05-14T09:53:42.928Z,91.10
2018-05-14T09:56:11.239Z,91.10
2018-05-14T09:58:39.479Z,90.80
2018-05-14T10:01:07.759Z,90.70
2018-05-14T10:03:36.072Z,90.90
2018-05-14T10:06:04.351Z,90.60
2018-05-14T10:08:32.619Z,89.60
2018-05-14T10:11:01.720Z,86.90
2018-05-14T10:13:30.019Z,86.80
2018-05-14T10:15:58.290Z,84.80
2018-05-14T10:18:27.368Z,83.80
2018-05-14T10:20:55.748Z,83.70
2018-05-14T10:23:24.030Z,84.10
2018-05-14T10:25:52.293Z,82.80
2018-05-14T10:28:20.591Z,82.10
2018-05-14T10:30:48.856Z,83.40
2018-05-14T10:33:17.127Z,80.60
2018-05-14T10:35:45.503Z,80.10
2018-05-14T10:38:13.796Z,78.80
2018-05-14T10:40:42.131Z,77.30
2018-05-14T10:43:10.435Z,77.00
2018-05-14T10:45:38.726Z,76.00
2018-05-14T10:48:07.001Z,75.40
2018-05-14T10:50:35.287Z,76.90
2018-05-14T10:53:04.337Z,71.00
2018-05-14T10:55:32.623Z,71.00
2018-05-14T10:58:00.911Z,69.40
2018-05-14T11:00:29.292Z,69.60
2018-05-14T11:02:57.588Z,70.80
2018-05-14T11:05:25.874Z,70.20
2018-05-14T11:07:54.223Z,70.30
2018-05-14T11:10:22.500Z,70.90
2018-05-14T11:12:50.879Z,69.80
2018-05-14T11:15:19.167Z,69.80
2018-05-14T11:17:48.241Z,67.50
2018-05-14T11:20:16.550Z,67.50
2018-05-14T11:22:44.903Z,68.20
2018-05-14T11:25:13.226Z,69.10
2018-05-14T11:27:42.426Z,68.20
2018-05-14T11:30:10.659Z,68.20
2018-05-14T11:32:39.037Z,66.10
2018-05-14T11:35:10.393Z,66.40
2018-05-14T11:37:38.755Z,65.90
2018-05-14T11:40:07.040Z,66.30
2018-05-14T11:42:35.323Z,66.50
2018-05-14T11:45:03.623Z,67.20
2018-05-14T11:47:32.671Z,64.00
2018-05-14T11:50:00.939Z,63.90
2018-05-14T11:52:29.289Z,62.90
2018-05-14T11:54:58.303Z,60.60
2018-05-14T11:57:26.573Z,60.60
2018-05-14T11:59:54.913Z,60.10
2018-05-14T12:02:23.220Z,60.80
2018-05-14T12:04:51.496Z,60.00
2018-05-14T12:07:19.800Z,59.80
2018-05-14T12:09:48.108Z,59.30
2018-05-14T12:12:16.558Z,59.50
2018-05-14T12:14:45.553Z,56.50
2018-05-14T12:17:13.894Z,56.40
2018-05-14T12:19:42.221Z,56.40
2018-05-14T12:22:10.618Z,56.50
2018-05-14T12:24:38.972Z,56.40
2018-05-14T12:27:07.264Z,55.40
2018-05-14T12:29:35.536Z,55.70
2018-05-14T12:32:03.932Z,55.80
2018-05-14T12:34:32.134Z,55.90
2018-05-14T12:37:00.408Z,56.30
2018-05-14T12:39:28.719Z,55.40
2018-05-14T12:41:56.992Z,54.20
2018-05-14T12:44:25.304Z,53.60
2018-05-14T12:46:53.668Z,52.70
2018-05-14T12:49:21.952Z,52.60
2018-05-14T12:51:51.031Z,52.40
2018-05-14T12:54:19.333Z,52.40
2018-05-14T12:56:49.107Z,52.70
2018-05-14T12:59:17.500Z,52.70
2018-05-14T13:01:45.884Z,52.90
2018-05-14T13:04:14.302Z,52.20
2018-05-14T13:06:43.335Z,52.80
2018-05-14T13:09:11.608Z,52.70
2018-05-14T13:11:39.907Z,52.70
2018-05-14T13:14:08.288Z,53.10
2018-05-14T13:19:11.893Z,52.90
2018-05-14T13:21:40.171Z,52.90
2018-05-14T13:24:08.447Z,52.80
2018-05-14T13:26:36.742Z,52.90
2018-05-14T13:29:05.035Z,52.60
2018-05-14T13:31:33.295Z,52.20
2018-05-14T13:34:01.587Z,52.40
2018-05-14T13:36:30.678Z,52.70
2018-05-14T13:38:59.037Z,52.60
2018-05-14T13:41:27.356Z,52.40
2018-05-14T13:43:56.399Z,52.30
2018-05-14T13:46:24.693Z,52.20
2018-05-14T13:48:52.985Z,52.10
2018-05-14T13:51:22.154Z,51.80
2018-05-14T13:53:50.435Z,51.70
2018-05-14T13:56:19.496Z,51.70
2018-05-14T13:58:47.775Z,51.70
2018-05-14T14:01:16.048Z,51.00
2018-05-14T14:03:44.339Z,51.30
2018-05-14T14:06:12.633Z,51.70
2018-05-14T14:08:40.907Z,50.40
2018-05-14T14:11:09.226Z,50.60
2018-05-14T14:13:37.507Z,50.40
2018-05-14T14:16:06.556Z,49.90
2018-05-14T14:18:34.855Z,49.70
2018-05-14T14:21:03.939Z,50.70
2018-05-14T14:23:32.330Z,50.50
2018-05-14T14:26:00.501Z,51.10
2018-05-14T14:28:28.780Z,51.20
2018-05-14T14:30:57.071Z,50.60
2018-05-14T14:33:25.412Z,50.60
2018-05-14T14:35:54.574Z,51.40
2018-05-14T14:38:22.887Z,51.40
2018-05-14T14:40:52.075Z,51.30
2018-05-14T14:43:20.371Z,51.20
2018-05-14T14:45:50.147Z,50.20
2018-05-14T14:48:18.448Z,50.20
2018-05-14T14:50:46.714Z,49.80
2018-05-14T14:53:14.991Z,50.20
2018-05-14T14:55:43.251Z,50.60
2018-05-14T14:58:11.547Z,50.60
2018-05-14T15:00:39.835Z,51.00
2018-05-14T15:03:08.232Z,50.70
2018-05-14T15:05:36.566Z,49.30
2018-05-14T15:08:04.884Z,49.50
2018-05-14T15:10:33.148Z,48.10
2018-05-14T15:13:01.538Z,48.40
2018-05-14T15:15:29.803Z,47.50
2018-05-14T15:17:58.092Z,46.50
2018-05-14T15:20:27.168Z,45.70
2018-05-14T15:22:55.568Z,45.70
2018-05-14T15:25:24.615Z,45.40
2018-05-14T15:27:52.923Z,45.40
2018-05-14T15:30:21.298Z,44.90
2018-05-14T15:32:49.671Z,43.80
2018-05-14T15:35:17.952Z,42.00
2018-05-14T15:37:46.355Z,41.20
2018-05-14T15:40:14.670Z,40.30
2018-05-14T15:42:42.940Z,39.80
2018-05-14T15:45:11.211Z,39.40
2018-05-14T15:47:39.512Z,38.40
2018-05-14T15:50:07.801Z,37.00
2018-05-14T15:52:36.304Z,36.20
2018-05-14T15:55:05.347Z,38.00
2018-05-14T15:57:33.619Z,37.30
2018-05-14T16:00:01.967Z,37.60
2018-05-14T16:02:30.280Z,36.80
2018-05-14T16:04:58.582Z,36.70
2018-05-14T16:07:26.856Z,36.60
2018-05-14T16:09:55.269Z,36.20
2018-05-14T16:12:23.526Z,36.60
2018-05-14T16:14:51.906Z,36.10
2018-05-14T16:17:20.199Z,36.40
2018-05-14T16:19:49.387Z,36.20
2018-05-14T16:22:19.167Z,36.00
2018-05-14T16:24:47.444Z,35.90
2018-05-14T16:27:15.747Z,35.40
2018-05-14T16:29:44.788Z,35.40
2018-05-14T16:32:13.111Z,35.40
2018-05-14T16:34:41.361Z,34.70
2018-05-14T16:37:09.648Z,33.90
2018-05-14T16:39:38.040Z,33.80
2018-05-14T16:42:06.423Z,33.90
2018-05-14T16:44:34.796Z,33.50
2018-05-14T16:47:03.179Z,32.60
2018-05-14T16:49:31.558Z,32.00
2018-05-14T16:51:59.831Z,32.10
2018-05-14T16:54:28.108Z,31.10
2018-05-14T16:56:56.367Z,30.70
2018-05-14T16:59:24.647Z,30.50
2018-05-14T17:01:52.920Z,30.40
2018-05-14T17:04:21.324Z,30.00
2018-05-14T17:06:49.635Z,30.10
2018-05-14T17:09:17.980Z,30.60
2018-05-14T17:11:46.235Z,30.30
2018-05-14T17:14:14.532Z,30.00
2018-05-14T17:16:42.904Z,29.50
2018-05-14T17:19:11.188Z,29.30
2018-05-14T17:21:40.231Z,29.60
2018-05-14T17:24:08.651Z,29.10
2018-05-14T17:26:37.027Z,29.30
2018-05-14T17:29:05.303Z,29.20
2018-05-14T17:31:34.399Z,29.10
2018-05-14T17:34:02.780Z,29.10
2018-05-14T17:36:32.678Z,30.00
2018-05-14T17:39:00.991Z,30.00
2018-05-14T17:41:30.072Z,32.60
2018-05-14T17:43:58.437Z,32.60
2018-05-14T17:46:28.229Z,34.10
2018-05-14T17:48:56.577Z,34.00
2018-05-14T17:51:25.636Z,35.50
2018-05-14T17:53:53.907Z,35.50
2018-05-14T17:56:22.201Z,36.20
2018-05-14T17:58:51.276Z,37.70
2018-05-14T18:01:19.551Z,37.60
2018-05-14T18:03:47.864Z,37.80
2018-05-14T18:06:16.169Z,37.80
2018-05-14T18:08:44.463Z,37.10
2018-05-14T18:11:12.845Z,37.10
2018-05-14T18:13:41.108Z,37.00
2018-05-14T18:16:09.412Z,37.50
2018-05-14T18:18:37.679Z,37.60
2018-05-14T18:21:11.579Z,37.80
2018-05-14T18:23:45.484Z,38.10
2018-05-14T18:26:17.559Z,38.10
2018-05-14T18:28:48.756Z,38.40
2018-05-14T18:31:22.947Z,38.70
2018-05-14T18:33:53.918Z,39.40
2018-05-14T18:36:22.224Z,39.20
2018-05-14T18:38:50.510Z,39.40
2018-05-14T18:41:18.787Z,40.30
2018-05-14T18:43:47.072Z,39.90
2018-05-14T18:46:15.342Z,40.50
2018-05-14T18:48:43.648Z,40.40
2018-05-14T18:51:11.963Z,40.90
2018-05-14T18:53:40.247Z,41.30
2018-05-14T18:56:08.536Z,41.10
2018-05-14T18:58:36.841Z,41.30
2018-05-14T19:01:05.310Z,41.50
2018-05-14T19:03:33.595Z,41.90
2018-05-14T19:06:01.966Z,42.10
2018-05-14T19:08:30.283Z,42.30
2018-05-14T19:11:04.174Z,42.40
2018-05-14T19:13:33.268Z,42.80
2018-05-14T19:16:08.132Z,43.10
2018-05-14T19:18:36.486Z,43.10
2018-05-14T19:21:04.742Z,43.40
2018-05-14T19:23:39.175Z,43.70
2018-05-14T19:26:07.460Z,43.80
2018-05-14T19:28:42.130Z,44.20
2018-05-14T19:31:10.393Z,44.20
2018-05-14T19:33:44.306Z,44.50
2018-05-14T19:36:13.977Z,44.50
2018-05-14T19:38:43.167Z,44.70
2018-05-14T19:41:12.539Z,45.30
2018-05-14T19:43:40.810Z,45.20
2018-05-14T19:46:09.112Z,45.30
2018-05-14T19:48:37.399Z,45.40
2018-05-14T19:51:07.393Z,45.80
2018-05-14T19:53:36.559Z,46.30
2018-05-14T19:56:04.839Z,45.90
2018-05-14T19:58:33.125Z,46.00
2018-05-14T20:01:01.502Z,45.90
2018-05-14T20:03:29.796Z,46.20
2018-05-14T20:05:58.042Z,46.30
2018-05-14T20:08:26.343Z,46.50
2018-05-14T20:10:54.600Z,46.80
2018-05-14T20:13:22.888Z,46.80
2018-05-14T20:15:51.163Z,47.00
2018-05-14T20:18:19.436Z,47.10
2018-05-14T20:20:47.740Z,47.10
2018-05-14T20:23:16.787Z,47.80
2018-05-14T20:25:45.079Z,47.80
2018-05-14T20:28:13.367Z,47.80
2018-05-14T20:30:41.673Z,48.00
2018-05-14T20:33:10.757Z,48.30
2018-05-14T20:35:40.759Z,48.30
2018-05-14T20:38:09.029Z,48.40
2018-05-14T20:40:37.287Z,48.40
2018-05-14T20:43:05.603Z,48.70
2018-05-14T20:45:33.967Z,48.90
2018-05-14T20:48:02.269Z,48.90
2018-05-14T20:50:31.312Z,50.00
2018-05-14T20:52:59.596Z,49.40
2018-05-14T20:55:27.872Z,49.20
2018-05-14T20:57:56.275Z,49.50
2018-05-14T21:00:24.535Z,49.60
2018-05-14T21:02:52.851Z,49.70
2018-05-14T21:05:21.207Z,50.00
2018-05-14T21:07:55.315Z,50.10
2018-05-14T21:10:23.593Z,50.10
2018-05-14T21:12:51.863Z,50.20
2018-05-14T21:15:20.363Z,50.40
2018-05-14T21:17:48.730Z,50.50
2018-05-14T21:20:17.040Z,50.70
2018-05-14T21:22:45.386Z,50.80
2018-05-14T21:25:13.663Z,51.00
2018-05-14T21:27:41.951Z,51.10
2018-05-14T21:30:11.005Z,51.50
2018-05-14T21:32:39.294Z,51.40
2018-05-14T21:35:07.570Z,51.50
2018-05-14T21:37:35.916Z,51.80
2018-05-14T21:40:04.916Z,52.20
2018-05-14T21:42:33.213Z,52.10
2018-05-14T21:45:01.654Z,52.00
2018-05-14T21:47:29.927Z,52.20
2018-05-14T21:49:58.215Z,52.20
2018-05-14T21:52:26.539Z,52.60
2018-05-14T21:54:54.807Z,52.60
2018-05-14T21:57:23.096Z,52.90
2018-05-14T21:59:51.410Z,52.90
2018-05-14T22:02:19.680Z,53.10
2018-05-14T22:04:47.960Z,53.20
2018-05-14T22:07:17.003Z,53.50
2018-05-14T22:09:45.276Z,53.40
2018-05-14T22:12:13.551Z,53.70
2018-05-14T22:14:41.835Z,53.70
2018-05-14T22:17:10.148Z,54.00
2018-05-14T22:19:38.411Z,54.20
2018-05-14T22:22:07.456Z,55.00
2018-05-14T22:24:35.747Z,54.40
2018-05-14T22:27:04.018Z,54.70
2018-05-14T22:29:32.292Z,54.80
2018-05-14T22:32:00.571Z,55.10
2018-05-14T22:34:28.875Z,55.30
2018-05-14T22:36:57.246Z,55.50
2018-05-14T22:39:25.511Z,55.80
2018-05-14T22:41:53.763Z,56.00
2018-05-14T22:44:22.075Z,56.20
2018-05-14T22:46:50.347Z,56.70
2018-05-14T22:49:18.837Z,56.90
2018-05-14T22:51:47.125Z,57.20
2018-05-14T22:54:27.288Z,57.40
2018-05-14T22:56:55.576Z,57.70
2018-05-14T22:59:23.902Z,58.00
2018-05-14T23:01:52.175Z,58.40
2018-05-14T23:04:20.448Z,58.60
2018-05-14T23:06:48.742Z,59.00
2018-05-14T23:09:17.029Z,59.20
2018-05-14T23:11:46.816Z,59.70
2018-05-14T23:14:15.111Z,59.70
2018-05-14T23:16:43.360Z,59.90
2018-05-14T23:19:11.639Z,60.20
2018-05-14T23:21:39.935Z,60.80
2018-05-14T23:24:08.219Z,61.40
2018-05-14T23:26:36.487Z,61.80
2018-05-14T23:29:04.795Z,62.40
2018-05-14T23:31:33.836Z,63.30
2018-05-14T23:34:02.148Z,63.10
2018-05-14T23:36:30.445Z,63.80
2018-05-14T23:38:59.491Z,65.10
2018-05-14T23:41:27.759Z,65.00
2018-05-14T23:43:56.055Z,65.60
2018-05-14T23:46:24.340Z,66.40
2018-05-14T23:48:52.623Z,66.70
2018-05-14T23:51:20.916Z,67.10
2018-05-14T23:53:49.957Z,67.90
2018-05-14T23:56:18.251Z,68.60
2018-05-14T23:58:46.531Z,68.00
